Time;durP1;ratioP1;P1;durP2;ratioP2;P2;SDS_P1;SDS_P2;PMS_P1;PMS_P2;Temp;Humidity;BMP_temperature;BMP_pressure;BME280_temperature;BME280_humidity;BME280_pressure;Samples;Min_cycle;Max_cycle;Signal;HPM_P1;HPM_P2
2022/09/29 00:01:08;;;;;;;8.82;4.97;;;;;;;11.70;100.00;97308.53;4423334;32;20085;-83
2022/09/29 00:03:36;;;;;;;6.70;4.28;;;;;;;11.72;100.00;97303.94;4423262;32;20093;-83
2022/09/29 00:06:11;;;;;;;9.38;4.65;;;;;;;11.74;100.00;97309.81;4423176;32;20553;-83
2022/09/29 00:08:38;;;;;;;9.18;4.45;;;;;;;11.70;100.00;97303.28;4408150;32;20456;-83
2022/09/29 00:11:10;;;;;;;9.75;4.97;;;;;;;11.62;100.00;97292.88;4407874;32;20102;-83
2022/09/29 00:13:37;;;;;;;8.23;4.55;;;;;;;11.66;100.00;97299.41;4407801;32;20090;-83
2022/09/29 00:16:04;;;;;;;8.70;4.75;;;;;;;11.77;100.00;97306.00;4407916;32;20098;-83
2022/09/29 00:18:33;;;;;;;8.38;4.90;;;;;;;11.77;100.00;97301.56;4407852;32;20474;-83
2022/09/29 00:21:08;;;;;;;7.05;4.35;;;;;;;11.79;100.00;97304.00;4407924;32;20101;-83
2022/09/29 00:23:36;;;;;;;7.55;4.78;;;;;;;11.78;100.00;97292.72;4394261;32;20539;-83
2022/09/29 00:26:13;;;;;;;6.95;4.25;;;;;;;11.76;100.00;97289.44;4407916;32;20620;-83
2022/09/29 00:28:46;;;;;;;11.52;5.07;;;;;;;11.74;100.00;97283.56;4407829;32;20153;-83
2022/09/29 00:31:13;;;;;;;11.40;4.72;;;;;;;11.65;100.00;97292.53;4407825;32;20529;-83
2022/09/29 00:33:40;;;;;;;10.73;4.75;;;;;;;11.64;100.00;97288.25;4407812;32;20137;-83
2022/09/29 00:36:11;;;;;;;10.32;4.97;;;;;;;11.59;100.00;97291.44;4407960;32;20124;-82
2022/09/29 00:38:40;;;;;;;10.95;4.78;;;;;;;11.57;100.00;97289.97;4407588;32;20093;-83
2022/09/29 00:41:16;;;;;;;7.43;4.90;;;;;;;11.51;100.00;97289.72;4407581;32;20597;-83
2022/09/29 00:43:56;;;;;;;12.70;4.72;;;;;;;11.62;100.00;97285.81;4407540;32;20098;-83
2022/09/29 00:46:33;;;;;;;8.55;5.10;;;;;;;11.59;100.00;97280.94;4408127;32;20102;-83
2022/09/29 00:49:26;;;;;;;9.23;4.87;;;;;;;11.57;100.00;97289.97;4407567;32;20168;-83
2022/09/29 00:52:02;;;;;;;10.95;4.95;;;;;;;11.56;100.00;97289.16;4345076;33;20134;-83
2022/09/29 00:54:37;;;;;;;8.30;5.00;;;;;;;11.49;100.00;97291.72;4345336;33;20196;-83
2022/09/29 00:57:06;;;;;;;7.15;4.68;;;;;;;11.45;100.00;97293.06;4345145;33;20087;-82
2022/09/29 00:59:46;;;;;;;10.02;5.20;;;;;;;11.43;100.00;97295.03;4345289;33;20163;-82
2022/09/29 01:02:14;;;;;;;13.93;4.93;;;;;;;11.39;100.00;97293.78;4345420;33;20229;-83
2022/09/29 01:04:42;;;;;;;7.78;4.80;;;;;;;11.44;100.00;97290.59;4333088;33;20130;-83
2022/09/29 01:07:09;;;;;;;11.68;5.65;;;;;;;11.41;100.00;97276.03;4345097;33;20123;-83
2022/09/29 01:09:38;;;;;;;10.25;4.97;;;;;;;11.45;100.00;97266.81;4345245;33;20220;-83
2022/09/29 01:12:05;;;;;;;9.40;5.62;;;;;;;11.45;100.00;97274.69;4332680;33;20111;-83
2022/09/29 01:14:34;;;;;;;9.27;5.65;;;;;;;11.43;100.00;97274.06;4345128;33;20188;-83
2022/09/29 01:17:01;;;;;;;11.63;5.75;;;;;;;11.33;100.00;97271.69;4345066;33;20197;-83
2022/09/29 01:19:57;;;;;;;9.05;5.20;;;;;;;11.29;100.00;97277.47;4345080;33;20257;-83
2022/09/29 01:22:39;;;;;;;10.07;5.32;;;;;;;11.29;100.00;97267.00;4345209;33;20100;-82
2022/09/29 01:25:40;;;;;;;10.32;4.68;;;;;;;11.29;100.00;97272.22;4345281;33;20095;-83
2022/09/29 01:28:13;;;;;;;9.40;5.40;;;;;;;11.30;100.00;97268.62;4355384;32;20190;-83
2022/09/29 01:31:21;;;;;;;10.90;5.33;;;;;;;11.25;100.00;97270.94;4422404;32;20256;-83
2022/09/29 01:34:09;;;;;;;11.35;5.18;;;;;;;11.13;100.00;97270.59;4422800;32;20422;-83
2022/09/29 01:37:24;;;;;;;9.45;5.65;;;;;;;11.03;100.00;97260.34;4408765;32;20101;-83
2022/09/29 01:39:57;;;;;;;;;;;;;;;11.03;100.00;97262.97;4359887;32;20163;-83
2022/09/29 01:42:33;;;;;;;10.45;5.95;;;;;;;11.02;100.00;97253.47;4359506;32;19991;-82
2022/09/29 01:45:26;;;;;;;14.13;6.68;;;;;;;10.95;100.00;97253.38;4359581;32;20126;-83
2022/09/29 01:47:57;;;;;;;9.52;5.43;;;;;;;10.91;100.00;97251.28;4359547;32;20583;-83
2022/09/29 01:50:41;;;;;;;13.43;7.03;;;;;;;10.89;100.00;97240.16;4347445;32;20098;-82
2022/09/29 01:53:13;;;;;;;10.20;5.90;;;;;;;10.89;100.00;97245.41;4359460;32;20119;-83
2022/09/29 01:55:47;;;;;;;11.32;6.30;;;;;;;10.95;100.00;97239.47;4359453;32;20167;-82
2022/09/29 01:58:21;;;;;;;9.60;5.97;;;;;;;10.94;100.00;97236.00;4359410;32;20099;-83
2022/09/29 02:00:54;;;;;;;9.95;6.45;;;;;;;10.91;100.00;97236.38;4347246;32;20157;-83
2022/09/29 02:03:26;;;;;;;11.45;6.18;;;;;;;10.92;100.00;97242.44;4347033;32;20214;-83
2022/09/29 02:05:56;;;;;;;11.45;6.43;;;;;;;10.96;100.00;97239.28;4359525;32;20126;-83
2022/09/29 02:08:46;;;;;;;13.55;6.55;;;;;;;10.99;100.00;97241.53;4359317;32;20181;-83
2022/09/29 02:11:16;;;;;;;12.35;5.82;;;;;;;11.05;100.00;97244.44;4360898;32;20095;-83
2022/09/29 02:13:59;;;;;;;12.35;6.55;;;;;;;11.08;100.00;97244.91;4360800;32;20601;-83
2022/09/29 02:16:29;;;;;;;11.32;5.85;;;;;;;11.17;100.00;97248.25;4403773;32;20159;-82
2022/09/29 02:19:09;;;;;;;9.88;6.10;;;;;;;11.19;100.00;97247.09;4410037;32;20145;-83
2022/09/29 02:21:36;;;;;;;10.35;5.60;;;;;;;11.23;100.00;97246.72;4410112;32;20530;-82
2022/09/29 02:24:04;;;;;;;12.10;6.75;;;;;;;11.24;100.00;97245.75;4423834;32;20110;-82
2022/09/29 02:26:33;;;;;;;12.13;5.70;;;;;;;11.25;100.00;97247.34;4423937;32;20459;-82
2022/09/29 02:29:01;;;;;;;11.32;6.10;;;;;;;11.28;100.00;97253.06;4423515;32;20115;-83
2022/09/29 02:31:29;;;;;;;11.52;5.62;;;;;;;11.36;100.00;97262.66;4410041;32;20094;-82
2022/09/29 02:33:57;;;;;;;10.50;5.95;;;;;;;11.38;100.00;97260.66;4423832;32;20099;-83
2022/09/29 02:36:56;;;;;;;9.75;5.12;;;;;;;11.41;100.00;97276.03;4423830;32;20102;-83
2022/09/29 02:40:02;;;;;;;11.32;5.82;;;;;;;11.44;100.00;97272.25;4360796;32;20202;-82
2022/09/29 02:42:30;;;;;;;9.30;5.10;;;;;;;11.42;100.00;97282.91;4360760;32;20157;-83
2022/09/29 02:45:10;;;;;;;10.63;5.62;;;;;;;11.45;100.00;97281.75;4360790;32;20149;-83
2022/09/29 02:48:05;;;;;;;10.40;5.75;;;;;;;11.40;100.00;97282.28;4360944;32;20540;-83
2022/09/29 02:50:47;;;;;;;12.95;6.50;;;;;;;11.42;100.00;97293.41;4360853;32;20339;-82
2022/09/29 02:53:24;;;;;;;10.85;6.55;;;;;;;11.50;100.00;97290.69;4360937;32;20152;-82
2022/09/29 02:56:17;;;;;;;11.57;6.20;;;;;;;11.50;100.00;97287.25;4360721;32;20548;-82
2022/09/29 02:58:56;;;;;;;14.70;7.15;;;;;;;11.56;100.00;97288.37;4348744;32;20112;-82
2022/09/29 03:01:23;;;;;;;14.60;7.82;;;;;;;11.60;100.00;97290.44;4360952;32;20181;-82
2022/09/29 03:03:51;;;;;;;15.15;8.60;;;;;;;11.64;100.00;97285.66;4360675;32;20531;-83
2022/09/29 03:06:20;;;;;;;16.25;8.23;;;;;;;11.65;100.00;97284.66;4360757;32;20096;-82
2022/09/29 03:08:47;;;;;;;16.90;7.93;;;;;;;11.63;100.00;97279.59;4360564;32;20151;-83
2022/09/29 03:11:14;;;;;;;17.83;7.80;;;;;;;11.65;100.00;97282.03;4360880;32;20131;-83
2022/09/29 03:13:41;;;;;;;14.65;7.35;;;;;;;11.66;100.00;97283.69;4360585;32;20130;-82
2022/09/29 03:16:09;;;;;;;12.52;7.60;;;;;;;11.68;100.00;97277.22;4385584;32;20391;-83
2022/09/29 03:18:36;;;;;;;12.55;7.35;;;;;;;11.57;100.00;97279.47;4423538;32;20786;-83
2022/09/29 03:21:03;;;;;;;15.70;8.77;;;;;;;11.62;100.00;97275.34;4422485;32;20457;-83
2022/09/29 03:23:30;;;;;;;14.02;7.68;;;;;;;11.62;100.00;97275.34;4423551;32;20441;-83
2022/09/29 03:25:58;;;;;;;18.00;8.63;;;;;;;11.61;100.00;97273.72;4423375;32;20105;-83
2022/09/29 03:28:25;;;;;;;13.98;7.90;;;;;;;11.57;100.00;97271.63;4423514;32;20098;-82
2022/09/29 03:30:54;;;;;;;16.98;8.52;;;;;;;11.53;100.00;97268.53;4423265;32;20157;-83
2022/09/29 03:33:21;;;;;;;15.18;8.50;;;;;;;11.52;100.00;97259.03;4423471;32;20089;-83
2022/09/29 03:35:48;;;;;;;15.88;8.68;;;;;;;11.53;100.00;97253.62;4423387;32;20167;-83
2022/09/29 03:38:15;;;;;;;13.55;7.62;;;;;;;11.51;100.00;97244.31;4423368;32;20154;-82
2022/09/29 03:40:42;;;;;;;14.87;7.78;;;;;;;11.45;100.00;97245.84;4406616;32;20109;-82
2022/09/29 03:43:09;;;;;;;13.73;7.95;;;;;;;11.47;100.00;97241.22;4408067;32;20102;-83
2022/09/29 03:45:36;;;;;;;11.55;7.43;;;;;;;11.51;100.00;97247.75;4408075;32;20158;-82
2022/09/29 03:48:04;;;;;;;15.85;8.55;;;;;;;11.59;100.00;97246.84;4408076;32;20090;-83
2022/09/29 03:50:30;;;;;;;13.35;7.60;;;;;;;11.62;100.00;97229.94;4408053;32;20155;-82
2022/09/29 03:52:58;;;;;;;15.02;7.75;;;;;;;11.60;100.00;97221.44;4408026;32;20215;-83
2022/09/29 03:55:25;;;;;;;10.82;7.10;;;;;;;11.52;100.00;97227.56;4407896;32;20152;-82
2022/09/29 03:57:52;;;;;;;13.18;7.45;;;;;;;11.52;100.00;97232.81;4408192;32;20098;-82
2022/09/29 04:00:19;;;;;;;15.93;7.62;;;;;;;11.54;100.00;97238.72;4407958;32;20479;-82
2022/09/29 04:02:46;;;;;;;16.45;8.15;;;;;;;11.60;100.00;97231.94;4407441;32;20533;-82
2022/09/29 04:05:14;;;;;;;13.10;7.95;;;;;;;11.60;100.00;97227.50;4407954;32;20090;-83
2022/09/29 04:07:41;;;;;;;14.70;7.78;;;;;;;11.58;100.00;97223.41;4417456;32;20106;-83
2022/09/29 04:10:09;;;;;;;27.95;9.60;;;;;;;11.61;100.00;97225.69;4422727;32;20177;-85
2022/09/29 04:12:36;;;;;;;22.73;8.63;;;;;;;11.57;100.00;97227.84;4423115;32;20141;-83
2022/09/29 04:15:03;;;;;;;19.65;9.15;;;;;;;11.51;100.00;97229.41;4423272;32;20114;-83
2022/09/29 04:17:31;;;;;;;16.17;8.40;;;;;;;11.48;100.00;97227.13;4422564;32;20132;-82
2022/09/29 04:19:58;;;;;;;24.45;10.00;;;;;;;11.58;100.00;97226.84;4422715;32;20093;-83
2022/09/29 04:22:25;;;;;;;17.65;9.32;;;;;;;11.58;100.00;97226.03;4423071;32;20105;-82
2022/09/29 04:24:52;;;;;;;17.42;8.80;;;;;;;11.57;100.00;97221.78;4423058;32;20146;-81
2022/09/29 04:27:19;;;;;;;20.83;9.30;;;;;;;11.57;100.00;97229.66;4423138;32;20117;-81
2022/09/29 04:29:46;;;;;;;34.05;10.32;;;;;;;11.58;100.00;97224.22;4413901;32;20102;-82
2022/09/29 04:32:13;;;;;;;55.47;11.93;;;;;;;11.61;100.00;97223.06;4417686;32;20995;-81
2022/09/29 04:34:40;;;;;;;79.47;11.57;;;;;;;11.57;100.00;97225.25;4420579;32;20558;-81
2022/09/29 04:37:10;;;;;;;22.92;10.73;;;;;;;11.54;100.00;97223.78;4420854;32;20102;-82
2022/09/29 04:39:37;;;;;;;41.30;10.60;;;;;;;11.58;100.00;97223.41;4420752;32;20168;-81
2022/09/29 04:42:04;;;;;;;36.65;9.65;;;;;;;11.63;100.00;97223.72;4423410;32;20112;-81
2022/09/29 04:44:31;;;;;;;19.70;10.05;;;;;;;11.58;100.00;97226.84;4405714;32;20105;-81
2022/09/29 04:46:59;;;;;;;21.58;10.20;;;;;;;11.61;100.00;97226.50;4420234;32;20094;-81
2022/09/29 04:49:26;;;;;;;19.92;10.43;;;;;;;11.67;100.00;97232.81;4420774;32;20105;-81
2022/09/29 04:51:53;;;;;;;18.12;9.65;;;;;;;11.72;100.00;97230.47;4420154;32;20166;-80
2022/09/29 04:54:20;;;;;;;17.48;9.25;;;;;;;11.73;100.00;97229.47;4420649;32;20612;-82
2022/09/29 04:56:48;;;;;;;18.10;9.48;;;;;;;11.76;100.00;97230.91;4420645;32;20093;-80
2022/09/29 04:59:16;;;;;;;23.40;12.55;;;;;;;11.79;100.00;97239.22;4420258;32;20159;-80
2022/09/29 05:01:44;;;;;;;17.27;9.48;;;;;;;11.78;100.00;97245.50;4404696;32;20548;-80
2022/09/29 05:04:12;;;;;;;18.65;8.07;;;;;;;11.84;100.00;97249.16;4416784;32;20110;-80
2022/09/29 05:06:39;;;;;;;13.00;6.93;;;;;;;11.76;100.00;97257.97;4420980;32;20097;-84
2022/09/29 05:09:07;;;;;;;12.75;5.95;;;;;;;11.73;100.00;97255.69;4422634;32;20109;-88
2022/09/29 05:11:34;;;;;;;10.90;5.70;;;;;;;11.65;100.00;97247.94;4425476;32;20591;-87
2022/09/29 05:14:01;;;;;;;8.05;5.43;;;;;;;11.56;100.00;97254.28;4430471;32;20575;-86
2022/09/29 05:16:29;;;;;;;8.23;5.10;;;;;;;11.58;100.00;97255.69;4429010;32;20165;-84
2022/09/29 05:18:56;;;;;;;6.97;4.75;;;;;;;11.60;100.00;97264.22;4422577;32;20119;-85
2022/09/29 05:21:24;;;;;;;10.50;4.60;;;;;;;11.51;100.00;97260.88;4421585;32;20097;-83
2022/09/29 05:23:56;;;;;;;7.00;4.07;;;;;;;11.60;100.00;97264.22;4420405;32;20116;-86
2022/09/29 05:26:23;;;;;;;5.07;3.30;;;;;;;11.65;100.00;97261.06;4418013;32;20136;-81
2022/09/29 05:28:50;;;;;;;4.70;3.10;;;;;;;11.68;100.00;97265.94;4421696;32;20681;-80
2022/09/29 05:31:17;;;;;;;5.47;3.85;;;;;;;11.61;100.00;97263.22;4421792;32;20156;-85
2022/09/29 05:33:45;;;;;;;13.57;4.80;;;;;;;11.53;100.00;97274.59;4423252;32;20390;-85
2022/09/29 05:36:12;;;;;;;14.40;4.93;;;;;;;11.40;100.00;97269.19;4426396;32;20113;-88
2022/09/29 05:38:39;;;;;;;7.45;4.78;;;;;;;11.34;100.00;97270.72;4420695;32;20192;-86
2022/09/29 05:41:09;;;;;;;9.85;5.10;;;;;;;11.32;100.00;97266.63;4420165;32;20119;-85
2022/09/29 05:43:37;;;;;;;13.07;5.05;;;;;;;11.21;100.00;97272.31;4407191;32;20121;-85
2022/09/29 05:46:06;;;;;;;6.70;4.80;;;;;;;11.23;100.00;97273.75;4423662;32;20133;-85
2022/09/29 05:48:34;;;;;;;6.40;3.95;;;;;;;11.17;100.00;97274.47;4419178;32;20124;-85
2022/09/29 05:51:08;;;;;;;5.55;3.45;;;;;;;11.12;100.00;97275.00;4421605;32;20511;-82
2022/09/29 05:53:36;;;;;;;4.95;3.20;;;;;;;10.99;100.00;97278.22;4423060;32;20085;-82
2022/09/29 05:56:05;;;;;;;5.07;2.80;;;;;;;10.97;100.00;97282.00;4418114;32;20097;-80
2022/09/29 05:58:32;;;;;;;4.65;2.45;;;;;;;10.88;100.00;97280.44;4421916;32;20101;-80
2022/09/29 06:01:04;;;;;;;4.47;2.53;;;;;;;10.80;100.00;97287.37;4422167;32;20177;-79
2022/09/29 06:03:33;;;;;;;3.45;2.65;;;;;;;10.74;100.00;97282.84;4421532;32;20160;-79
2022/09/29 06:06:21;;;;;;;3.83;2.60;;;;;;;10.77;100.00;97290.34;4422293;32;20435;-78
2022/09/29 06:08:49;;;;;;;3.97;3.10;;;;;;;10.85;100.00;97291.28;4417287;32;20447;-78
2022/09/29 06:11:19;;;;;;;4.43;3.03;;;;;;;10.81;100.00;97286.38;4419811;32;20098;-78
2022/09/29 06:13:48;;;;;;;4.12;2.80;;;;;;;10.85;100.00;97291.28;4433567;32;20146;-78
2022/09/29 06:16:18;;;;;;;3.87;2.50;;;;;;;10.85;100.00;97293.91;4410452;32;20110;-77
2022/09/29 06:18:46;;;;;;;2.97;2.50;;;;;;;10.77;100.00;97297.41;4417712;32;20119;-79
2022/09/29 06:21:25;;;;;;;3.62;2.33;;;;;;;10.74;100.00;97295.94;4419583;32;20848;-77
2022/09/29 06:23:53;;;;;;;4.12;2.65;;;;;;;10.80;100.00;97302.28;4417162;32;20162;-77
2022/09/29 06:26:21;;;;;;;3.53;2.47;;;;;;;10.75;100.00;97297.56;4422589;32;20163;-77
2022/09/29 06:28:51;;;;;;;3.12;2.33;;;;;;;10.77;100.00;97298.19;4418280;32;20125;-77
2022/09/29 06:31:21;;;;;;;3.00;2.10;;;;;;;10.79;100.00;97308.50;4409207;32;20156;-80
2022/09/29 06:33:48;;;;;;;2.70;2.10;;;;;;;10.78;100.00;97309.47;4422161;32;20159;-75
2022/09/29 06:39:05;;;;;;;2.70;1.75;;;;;;;10.86;100.00;97311.25;4424740;32;20145;-77
2022/09/29 06:41:34;;;;;;;2.25;1.67;;;;;;;10.83;100.00;97326.31;4419052;32;20139;-75
2022/09/29 06:44:01;;;;;;;1.73;1.48;;;;;;;10.88;100.00;97325.78;4421662;32;20432;-77
2022/09/29 06:46:29;;;;;;;1.92;1.40;;;;;;;10.92;100.00;97324.47;4423531;32;20485;-77
2022/09/29 06:48:56;;;;;;;3.00;1.87;;;;;;;11.02;100.00;97318.97;4425104;32;20104;-75
2022/09/29 06:51:24;;;;;;;3.67;1.60;;;;;;;11.00;100.00;97313.09;4420732;32;20152;-77
2022/09/29 06:54:04;;;;;;;7.35;3.58;;;;;;;10.99;100.00;97317.53;4425672;32;20132;-76
2022/09/29 06:56:38;;;;;;;3.40;2.05;;;;;;;11.13;100.00;97318.56;4421537;32;20097;-76
2022/09/29 06:59:06;;;;;;;3.00;2.00;;;;;;;11.23;100.00;97326.19;4430676;32;20140;-77
2022/09/29 07:01:33;;;;;;;3.80;2.22;;;;;;;11.26;100.00;97327.63;4434529;32;20101;-76
2022/09/29 07:04:01;;;;;;;13.25;5.15;;;;;;;11.22;100.00;97328.97;4426552;32;20114;-77
2022/09/29 07:06:29;;;;;;;29.42;10.65;;;;;;;11.17;100.00;97330.34;4419935;32;20125;-75
2022/09/29 07:08:57;;;;;;;4.75;2.42;;;;;;;11.29;100.00;97337.78;4434911;32;20089;-75
2022/09/29 07:11:25;;;;;;;3.65;2.08;;;;;;;11.16;100.00;97343.63;4434371;32;20101;-79
2022/09/29 07:13:53;;;;;;;2.28;1.60;;;;;;;11.12;100.00;97345.75;4438474;32;20172;-77
2022/09/29 07:16:24;;;;;;;2.28;1.60;;;;;;;11.06;100.00;97337.81;4431066;32;20140;-77
2022/09/29 07:18:51;;;;;;;2.47;2.15;;;;;;;11.12;100.00;97332.66;4426971;32;20146;-78
2022/09/29 07:21:20;;;;;;;3.33;1.85;;;;;;;11.24;100.00;97324.38;4432862;32;20132;-79
2022/09/29 07:23:47;;;;;;;3.45;1.40;;;;;;;11.32;100.00;97335.59;4423819;32;20094;-76
2022/09/29 07:26:15;;;;;;;2.03;1.52;;;;;;;11.56;100.00;97346.06;4424490;32;20144;-77
2022/09/29 07:28:44;;;;;;;2.47;1.60;;;;;;;11.81;100.00;97352.69;4431934;32;20117;-74
2022/09/29 07:31:13;;;;;;;3.65;1.50;;;;;;;11.98;100.00;97345.50;4431360;32;20856;-74
2022/09/29 07:33:46;;;;;;;2.05;1.35;;;;;;;12.10;100.00;97343.22;4424805;32;20094;-73
2022/09/29 07:36:16;;;;;;;1.50;1.25;;;;;;;12.33;100.00;97352.81;4421118;32;20142;-73
2022/09/29 07:38:48;;;;;;;1.98;1.60;;;;;;;12.23;100.00;97358.31;4421609;32;20114;-74
2022/09/29 07:41:17;;;;;;;1.70;1.23;;;;;;;12.35;100.00;97356.84;4414918;32;20136;-75
2022/09/29 07:43:44;;;;;;;1.73;1.27;;;;;;;12.32;100.00;97367.72;4420352;32;20135;-75
2022/09/29 07:46:11;;;;;;;3.53;1.17;;;;;;;12.27;100.00;97379.81;4417140;32;20160;-76
2022/09/29 07:48:39;;;;;;;1.77;1.42;;;;;;;12.10;100.00;97374.72;4414740;32;20164;-76
2022/09/29 07:51:07;;;;;;;2.35;1.45;;;;;;;12.18;100.00;97377.25;4434685;32;20104;-75
2022/09/29 07:53:35;;;;;;;5.20;2.35;;;;;;;12.28;100.00;97386.66;4423930;32;20097;-74
2022/09/29 07:56:20;;;;;;;3.22;1.90;;;;;;;12.29;100.00;97383.84;4420933;32;20467;-76
2022/09/29 07:58:48;;;;;;;;;;;;;;;12.56;100.00;97365.81;4435074;32;20097;-76
2022/09/29 08:01:17;;;;;;;2.45;1.20;;;;;;;12.68;100.00;97366.16;4437295;32;20005;-75
2022/09/29 08:03:50;;;;;;;1.52;0.98;;;;;;;12.62;100.00;97361.63;4423794;32;20086;-76
2022/09/29 08:06:18;;;;;;;1.10;0.95;;;;;;;12.56;100.00;97361.34;4417353;32;20125;-75
2022/09/29 08:08:46;;;;;;;1.42;1.00;;;;;;;12.37;100.00;97367.19;4424423;32;20114;-75
2022/09/29 08:11:30;;;;;;;1.73;1.08;;;;;;;12.63;100.00;97371.97;4424311;32;20505;-76
2022/09/29 08:13:59;;;;;;;0.93;0.80;;;;;;;12.89;100.00;97375.88;4436752;32;20795;-76
2022/09/29 08:16:27;;;;;;;1.27;0.77;;;;;;;12.93;100.00;97380.56;4431452;32;20124;-74
2022/09/29 08:18:57;;;;;;;2.42;0.90;;;;;;;13.16;100.00;97384.00;4434396;32;20154;-75
2022/09/29 08:21:24;;;;;;;1.05;0.77;;;;;;;13.32;100.00;97387.22;4422363;32;20169;-74
2022/09/29 08:23:51;;;;;;;1.40;0.80;;;;;;;13.35;100.00;97398.38;4427594;32;20146;-74
2022/09/29 08:26:21;;;;;;;1.48;1.30;;;;;;;13.59;100.00;97400.63;4405954;32;20167;-73
2022/09/29 08:29:05;;;;;;;1.30;1.10;;;;;;;13.15;100.00;97396.34;4421642;32;20090;-73
2022/09/29 08:31:36;;;;;;;4.05;0.88;;;;;;;13.09;100.00;97399.72;4420922;32;20141;-73
2022/09/29 08:34:04;;;;;;;2.53;0.90;;;;;;;12.94;100.00;97395.34;4422206;32;20085;-75
2022/09/29 08:36:32;;;;;;;1.02;0.90;;;;;;;12.90;100.00;97399.34;4425251;32;20541;-73
2022/09/29 08:38:59;;;;;;;1.12;0.70;;;;;;;13.08;100.00;97400.72;4422026;32;20143;-73
2022/09/29 08:41:33;;;;;;;1.35;0.98;;;;;;;13.23;100.00;97390.16;4417409;32;20100;-74
2022/09/29 08:44:06;;;;;;;0.60;0.57;;;;;;;13.12;100.00;97394.09;4409118;32;20173;-76
2022/09/29 08:46:42;;;;;;;1.48;0.80;;;;;;;13.02;100.00;97393.59;4407355;32;20101;-75
2022/09/29 08:49:15;;;;;;;1.15;0.80;;;;;;;13.07;100.00;97397.28;4433754;32;20164;-74
2022/09/29 08:52:03;;;;;;;1.80;0.80;;;;;;;13.10;100.00;97406.62;4426660;32;20085;-76
2022/09/29 08:54:44;;;;;;;1.60;0.77;;;;;;;13.02;100.00;97415.44;4417406;32;20985;-76
2022/09/29 08:57:19;;;;;;;0.90;0.80;;;;;;;13.16;100.00;97416.41;4421148;32;20499;-77
2022/09/29 08:59:53;;;;;;;2.70;1.08;;;;;;;13.25;100.00;97415.28;4408551;32;20532;-76
2022/09/29 09:02:33;;;;;;;1.48;0.70;;;;;;;13.36;100.00;97419.25;4411592;32;20508;-77
2022/09/29 09:05:11;;;;;;;0.88;0.75;;;;;;;13.48;100.00;97419.56;4420247;32;20188;-74
2022/09/29 09:07:47;;;;;;;1.58;0.70;;;;;;;13.59;100.00;97424.28;4414744;32;20123;-75
2022/09/29 09:10:23;;;;;;;2.42;0.93;;;;;;;13.76;100.00;97429.28;4420507;32;20200;-76
2022/09/29 09:13:13;;;;;;;2.05;0.60;;;;;;;13.65;100.00;97426.16;4421524;32;21197;-77
2022/09/29 09:16:19;;;;;;;0.95;0.70;;;;;;;13.74;100.00;97423.41;4408722;32;20105;-77
2022/09/29 09:19:07;;;;;;;0.93;0.62;;;;;;;13.82;100.00;97439.91;4343638;32;20107;-79
2022/09/29 09:21:41;;;;;;;0.95;0.80;;;;;;;13.85;100.00;97433.41;4348775;32;20162;-78
2022/09/29 09:24:16;;;;;;;2.67;0.70;;;;;;;13.81;100.00;97447.97;4338430;32;20099;-80
2022/09/29 09:26:48;;;;;;;0.88;0.88;;;;;;;13.71;100.00;97439.59;4348815;32;20126;-79
2022/09/29 09:29:27;;;;;;;2.78;0.98;;;;;;;13.63;100.00;97438.72;4346825;32;20476;-77
2022/09/29 09:32:01;;;;;;;1.23;0.80;;;;;;;13.86;100.00;97445.59;4343323;32;20159;-78
2022/09/29 09:34:37;;;;;;;3.45;0.70;;;;;;;13.95;100.00;97443.62;4335420;32;20223;-77
2022/09/29 09:37:19;;;;;;;0.95;0.50;;;;;;;14.03;100.00;97443.47;4342942;32;20135;-76
2022/09/29 09:40:13;;;;;;;2.75;0.70;;;;;;;14.13;100.00;97443.94;4347602;32;20130;-78
2022/09/29 09:42:47;;;;;;;1.35;0.70;;;;;;;14.24;100.00;97462.87;4345296;32;20111;-78
2022/09/29 09:45:28;;;;;;;0.60;0.60;;;;;;;14.48;100.00;97458.97;4335995;33;20620;-78
2022/09/29 09:48:05;;;;;;;1.12;0.70;;;;;;;14.58;100.00;97456.78;4351683;32;20153;-78
2022/09/29 09:50:36;;;;;;;3.62;0.77;;;;;;;14.64;100.00;97450.78;4356712;32;20135;-77
2022/09/29 09:53:11;;;;;;;0.90;0.60;;;;;;;14.75;100.00;97451.19;4364720;32;20376;-75
2022/09/29 09:55:42;;;;;;;0.68;0.57;;;;;;;14.61;100.00;97442.41;4432146;32;20567;-78
2022/09/29 09:58:19;;;;;;;2.47;0.80;;;;;;;14.50;100.00;97441.97;4421633;32;20109;-75
2022/09/29 10:00:51;;;;;;;1.10;0.50;;;;;;;14.62;100.00;97442.22;4420090;32;20124;-76
2022/09/29 10:03:18;;;;;;;1.40;0.65;;;;;;;14.83;100.00;97437.84;4421053;32;20116;-76
2022/09/29 10:05:47;;;;;;;0.75;0.40;;;;;;;14.98;100.00;97448.25;4412365;32;20094;-77
2022/09/29 10:08:26;;;;;;;1.10;0.40;;;;;;;14.99;100.00;97447.22;4407181;32;20191;-76
2022/09/29 10:10:54;;;;;;;0.43;0.43;;;;;;;15.10;100.00;97449.31;4424293;32;20160;-76
2022/09/29 10:13:29;;;;;;;2.05;0.70;;;;;;;15.17;100.00;97452.78;4421041;32;20082;-76
2022/09/29 10:16:12;;;;;;;0.50;0.50;;;;;;;15.37;100.00;97449.38;4430623;32;20129;-76
2022/09/29 10:18:45;;;;;;;0.88;0.40;;;;;;;15.62;100.00;97452.25;4417605;32;20086;-77
2022/09/29 10:21:22;;;;;;;0.90;0.50;;;;;;;15.75;100.00;97449.63;4422067;32;20208;-76
2022/09/29 10:23:50;;;;;;;2.92;0.68;;;;;;;15.78;100.00;97459.81;4423381;32;20112;-77
2022/09/29 10:26:40;;;;;;;2.67;0.57;;;;;;;16.30;98.97;97464.44;4422426;32;20117;-77
2022/09/29 10:29:22;;;;;;;2.83;0.43;;;;;;;16.25;100.00;97472.19;4423272;32;20145;-79
2022/09/29 10:32:18;;;;;;;0.35;0.30;;;;;;;16.29;99.41;97473.38;4404681;32;20150;-79
2022/09/29 10:34:47;;;;;;;0.62;0.40;;;;;;;16.59;100.00;97468.44;4380358;32;20135;-79
2022/09/29 10:37:34;;;;;;;3.33;0.50;;;;;;;16.56;100.00;97465.41;4362588;32;20477;-76
2022/09/29 10:40:22;;;;;;;1.35;0.40;;;;;;;16.58;98.69;97463.34;4363291;32;20488;-78
2022/09/29 10:42:52;;;;;;;0.13;0.13;;;;;;;16.92;96.52;97474.69;4380162;32;20154;-78
2022/09/29 10:45:24;;;;;;;1.48;0.30;;;;;;;17.08;88.45;97474.22;4368779;32;20504;-76
2022/09/29 10:47:58;;;;;;;1.55;0.35;;;;;;;17.08;88.51;97481.31;4375160;32;20546;-77
2022/09/29 10:50:28;;;;;;;1.95;0.60;;;;;;;17.19;89.54;97472.72;4379057;32;20488;-78
2022/09/29 10:53:06;;;;;;;0.35;0.35;;;;;;;17.27;87.32;97474.31;4373955;32;20130;-77
2022/09/29 10:55:47;;;;;;;1.08;0.75;;;;;;;17.36;89.57;97484.44;4378425;32;20107;-77
2022/09/29 10:58:39;;;;;;;1.05;0.50;;;;;;;17.45;89.78;97486.84;4363381;32;20197;-78
2022/09/29 11:01:25;;;;;;;1.05;0.70;;;;;;;17.49;90.45;97477.47;4383082;32;20133;-79
2022/09/29 11:04:02;;;;;;;1.23;0.40;;;;;;;17.72;88.43;97480.34;4382887;32;20192;-78
2022/09/29 11:06:31;;;;;;;1.20;0.45;;;;;;;17.61;87.30;97475.75;4362032;32;20131;-77
2022/09/29 11:09:04;;;;;;;0.45;0.40;;;;;;;17.84;87.91;97480.47;4376452;32;20222;-79
2022/09/29 11:11:58;;;;;;;1.27;0.70;;;;;;;17.90;88.62;97484.13;4390953;32;21911;-78
2022/09/29 11:14:36;;;;;;;2.12;0.70;;;;;;;17.59;91.36;97492.84;4421303;32;20224;-78
2022/09/29 11:17:30;;;;;;;0.40;0.40;;;;;;;17.42;90.34;97497.84;4420834;32;20097;-77
2022/09/29 11:20:00;;;;;;;1.60;0.60;;;;;;;17.34;90.43;97490.97;4409295;32;20156;-76
2022/09/29 11:22:48;;;;;;;0.50;0.40;;;;;;;17.51;89.25;97492.09;4407013;32;20089;-76
2022/09/29 11:25:31;;;;;;;2.28;0.68;;;;;;;17.73;90.22;97487.25;4419660;32;20161;-77
2022/09/29 11:28:10;;;;;;;1.50;0.95;;;;;;;17.42;92.02;97487.28;4406703;32;20098;-77
2022/09/29 11:30:55;;;;;;;0.70;0.47;;;;;;;17.26;92.42;97481.44;4421155;32;20498;-77
2022/09/29 11:33:41;;;;;;;2.03;0.40;;;;;;;17.41;90.57;97486.47;4422880;32;20151;-78
2022/09/29 11:36:22;;;;;;;2.83;0.40;;;;;;;17.19;91.29;97480.66;4420674;32;20123;-77
2022/09/29 11:38:52;;;;;;;2.72;0.40;;;;;;;17.06;93.36;97478.87;4421634;32;20507;-76
2022/09/29 11:41:39;;;;;;;0.45;0.30;;;;;;;16.91;95.20;97487.09;4410248;32;20116;-76
2022/09/29 11:44:54;;;;;;;0.47;0.40;;;;;;;16.88;96.01;97497.28;4420483;32;20171;-76
2022/09/29 11:47:46;;;;;;;3.55;0.50;;;;;;;16.88;99.82;97490.16;4419584;32;20200;-76
2022/09/29 11:50:35;;;;;;;2.05;0.30;;;;;;;16.81;95.81;97484.84;4420521;32;20125;-76
2022/09/29 11:53:14;;;;;;;1.90;0.68;;;;;;;16.87;95.15;97499.13;4420569;32;20125;-78
2022/09/29 11:55:56;;;;;;;0.45;0.45;;;;;;;16.71;97.76;97503.00;4420822;32;20103;-76